Time;durP1;ratioP1;P1;durP2;ratioP2;P2;SDS_P1;SDS_P2;PMS_P1;PMS_P2;Temp;Humidity;BMP_temperature;BMP_pressure;BME280_temperature;BME280_humidity;BME280_pressure;Samples;Min_cycle;Max_cycle;Signal;HPM_P1;HPM_P2
2022/05/28 00:01:53;;;;;;;1.15;0.70;;;23.40;42.30;;;-147.20;100.00;58430.41;5093755;28;20388;-19
2022/05/28 00:04:19;;;;;;;2.25;1.00;;;23.40;42.30;;;-147.20;100.00;58430.41;5095937;28;20044;-20
2022/05/28 00:06:45;;;;;;;2.03;0.70;;;23.40;42.30;;;-147.20;100.00;58430.41;5095765;28;20125;-20
2022/05/28 00:09:11;;;;;;;0.93;0.70;;;23.40;42.30;;;-147.20;100.00;58430.41;5095607;28;20101;-20
2022/05/28 00:11:41;;;;;;;0.80;0.50;;;23.40;42.30;;;-147.20;100.00;58430.41;5096324;28;20051;-19
2022/05/28 00:14:08;;;;;;;1.15;0.63;;;23.50;42.30;;;-147.20;100.00;58430.41;5095554;28;20063;-19
2022/05/28 00:16:36;;;;;;;2.55;0.75;;;23.50;42.30;;;-147.20;100.00;58430.41;5095565;28;20058;-20
2022/05/28 00:19:04;;;;;;;1.35;0.52;;;23.40;42.30;;;-147.20;100.00;58430.41;5095489;28;20515;-19
2022/05/28 00:21:29;;;;;;;0.57;0.50;;;23.40;42.30;;;-147.20;100.00;58430.41;5095644;28;20048;-19
2022/05/28 00:23:55;;;;;;;1.70;0.80;;;23.40;42.30;;;-147.20;100.00;58430.41;5091547;28;20052;-20
2022/05/28 00:26:22;;;;;;;1.17;0.80;;;23.40;42.30;;;-147.20;100.00;58430.41;5095675;28;20056;-20
2022/05/28 00:28:50;;;;;;;1.08;0.68;;;23.40;42.30;;;-147.20;100.00;58430.41;5095594;28;20377;-20
2022/05/28 00:31:16;;;;;;;1.08;0.73;;;23.40;42.30;;;-147.20;100.00;58430.41;5095571;28;20055;-20
2022/05/28 00:33:42;;;;;;;0.80;0.60;;;23.40;42.30;;;-147.20;100.00;58430.41;5095599;28;20048;-19
2022/05/28 00:36:10;;;;;;;0.60;0.60;;;23.40;42.30;;;-147.20;100.00;58430.41;5095391;28;20052;-20
2022/05/28 00:38:37;;;;;;;0.60;0.57;;;23.40;42.30;;;-147.20;100.00;58430.41;5095223;28;20059;-20
2022/05/28 00:41:03;;;;;;;0.82;0.70;;;23.40;42.30;;;-147.20;100.00;58430.41;5095387;28;20040;-19
2022/05/28 00:43:31;;;;;;;1.90;0.77;;;23.40;42.30;;;-147.20;100.00;58430.41;5095438;28;20047;-19
2022/05/28 00:46:04;;;;;;;0.50;0.50;;;23.40;42.30;;;-147.20;100.00;58430.41;5077537;28;20143;-19
2022/05/28 00:48:35;;;;;;;1.02;0.77;;;23.40;42.30;;;-147.20;100.00;58430.41;5075529;28;20044;-20
2022/05/28 00:51:09;;;;;;;;;;;23.40;42.30;;;-147.20;100.00;58430.41;5095986;28;20052;-19
2022/05/28 00:53:35;;;;;;;0.73;0.70;;;23.40;42.30;;;-147.20;100.00;58430.41;5095433;28;19927;-19
2022/05/28 00:56:04;;;;;;;1.05;0.60;;;23.40;42.30;;;-147.20;100.00;58430.41;5095062;28;20126;-19
2022/05/28 00:58:31;;;;;;;0.68;0.68;;;23.40;42.30;;;-147.20;100.00;58430.41;5094971;28;20051;-20
2022/05/28 01:00:57;;;;;;;0.60;0.60;;;23.40;42.90;;;-147.20;100.00;58430.41;5094998;28;20044;-19
2022/05/28 01:04:10;;;;;;;0.88;0.70;;;23.40;42.30;;;-147.20;100.00;58430.41;5095099;28;20052;-19
2022/05/28 01:06:58;;;;;;;0.85;0.50;;;23.40;42.30;;;-147.20;100.00;58430.41;5075420;28;20131;-19
2022/05/28 01:09:37;;;;;;;0.70;0.70;;;23.40;42.30;;;-147.20;100.00;58430.41;5094938;28;20047;-20
2022/05/28 01:12:14;;;;;;;0.88;0.70;;;23.40;42.30;;;-147.20;100.00;58430.41;5076466;28;20044;-20
2022/05/28 01:15:09;;;;;;;1.17;0.73;;;23.30;42.30;;;-147.20;100.00;58430.41;5095205;28;20044;-19
2022/05/28 01:17:54;;;;;;;0.98;0.70;;;23.40;42.40;;;-147.20;100.00;58430.41;5076492;28;20134;-19
2022/05/28 01:20:41;;;;;;;0.60;0.60;;;23.30;42.30;;;-147.20;100.00;58430.41;5094861;28;20047;-19
2022/05/28 01:23:20;;;;;;;2.00;1.13;;;23.30;42.30;;;-147.20;100.00;58430.41;5076737;28;20052;-19
2022/05/28 01:25:56;;;;;;;0.90;0.60;;;23.30;42.30;;;-147.20;100.00;58430.41;5094971;28;20075;-20
2022/05/28 01:28:37;;;;;;;0.70;0.57;;;23.30;42.30;;;-147.20;100.00;58430.41;5075178;28;20044;-19
2022/05/28 01:31:05;;;;;;;1.17;0.55;;;23.30;42.30;;;-147.20;100.00;58430.41;5072444;28;20052;-19
2022/05/28 01:33:34;;;;;;;0.50;0.50;;;23.30;42.30;;;-147.20;100.00;58430.41;5095086;28;20048;-19
2022/05/28 01:36:00;;;;;;;0.65;0.50;;;23.30;42.30;;;-147.20;100.00;58430.41;5093248;28;20109;-19
2022/05/28 01:38:27;;;;;;;0.70;0.70;;;23.30;42.40;;;-147.20;100.00;58430.41;5074975;28;20051;-19
2022/05/28 01:40:53;;;;;;;0.50;0.50;;;23.30;42.40;;;-147.20;100.00;58430.41;5076920;28;20476;-21
2022/05/28 01:43:20;;;;;;;0.60;0.60;;;23.30;42.40;;;-147.20;100.00;58430.41;5076287;28;20055;-20
2022/05/28 01:45:47;;;;;;;0.88;0.63;;;23.30;42.40;;;-147.20;100.00;58430.41;5076225;28;20051;-19
2022/05/28 01:48:14;;;;;;;1.00;0.70;;;23.30;42.40;;;-147.20;100.00;58430.41;5076426;28;20051;-19
2022/05/28 01:50:44;;;;;;;0.70;0.50;;;23.30;42.40;;;-147.20;100.00;58430.41;5094285;28;20040;-19
2022/05/28 01:56:02;;;;;;;;;;;23.30;42.40;;;-147.20;100.00;58430.41;5038800;28;20058;-20
2022/05/28 01:58:28;;;;;;;0.90;0.75;;;23.30;42.40;;;-147.20;100.00;58430.41;5094040;28;19916;-19
2022/05/28 02:00:53;;;;;;;0.80;0.60;;;23.30;42.40;;;-147.20;100.00;58430.41;5094124;28;20044;-19
2022/05/28 02:03:20;;;;;;;0.88;0.50;;;23.30;42.40;;;-147.20;100.00;58430.41;5075930;28;20055;-20
2022/05/28 02:05:46;;;;;;;1.05;0.68;;;23.30;42.40;;;-147.20;100.00;58430.41;5075986;28;20096;-19
2022/05/28 02:08:12;;;;;;;0.73;0.57;;;23.30;42.40;;;-147.20;100.00;58430.41;5093987;28;20052;-19
2022/05/28 02:10:44;;;;;;;0.50;0.50;;;23.30;42.40;;;-147.20;100.00;58430.41;5093994;28;20059;-19
2022/05/28 02:13:23;;;;;;;1.05;0.65;;;23.30;42.40;;;-147.20;100.00;58430.41;5075850;28;20044;-20
2022/05/28 02:15:55;;;;;;;1.02;0.60;;;23.30;42.40;;;-147.20;100.00;58430.41;5093992;28;20058;-19
2022/05/28 02:18:45;;;;;;;0.55;0.55;;;23.30;42.40;;;-147.20;100.00;58430.41;5075492;28;20475;-19
2022/05/28 02:21:26;;;;;;;0.60;0.60;;;23.20;42.40;;;-147.20;100.00;58430.41;5077104;28;20074;-19
2022/05/28 02:24:17;;;;;;;0.60;0.50;;;23.30;42.40;;;-147.20;100.00;58430.41;5074990;28;20098;-20
2022/05/28 02:26:55;;;;;;;1.00;0.70;;;23.20;42.30;;;-147.20;100.00;58430.41;5073925;28;20052;-19
2022/05/28 02:29:22;;;;;;;0.60;0.52;;;23.30;42.40;;;-147.20;100.00;58430.41;5059192;28;20079;-19
2022/05/28 02:31:49;;;;;;;1.05;0.80;;;23.20;42.40;;;-147.20;100.00;58430.41;5093556;28;20379;-20
2022/05/28 02:34:17;;;;;;;1.10;0.63;;;23.20;42.40;;;-147.20;100.00;58430.41;5093718;28;20059;-19
2022/05/28 02:36:43;;;;;;;0.85;0.55;;;23.20;42.40;;;-147.20;100.00;58430.41;5093743;28;20469;-20
2022/05/28 02:39:09;;;;;;;0.63;0.50;;;23.20;42.40;;;-147.20;100.00;58430.41;5093484;28;20052;-20
2022/05/28 02:41:35;;;;;;;0.63;0.63;;;23.20;42.40;;;-147.20;100.00;58430.41;5093211;28;20101;-20
2022/05/28 02:44:02;;;;;;;0.43;0.43;;;23.20;42.40;;;-147.20;100.00;58430.41;5093344;28;20060;-20
2022/05/28 02:46:28;;;;;;;0.95;0.70;;;23.20;42.40;;;-147.20;100.00;58430.41;5093035;28;20054;-19
2022/05/28 02:48:54;;;;;;;1.30;0.80;;;23.20;42.40;;;-147.20;100.00;58430.41;5093139;28;20381;-20
2022/05/28 02:51:22;;;;;;;0.88;0.70;;;23.20;42.40;;;-147.20;100.00;58430.41;5075123;28;20559;-20
2022/05/28 02:53:51;;;;;;;0.70;0.70;;;23.20;42.40;;;-147.20;100.00;58430.41;5093383;28;20127;-19
2022/05/28 02:56:18;;;;;;;0.50;0.50;;;23.20;42.40;;;-147.20;100.00;58430.41;5093341;28;20142;-19
2022/05/28 02:58:44;;;;;;;1.23;0.60;;;23.20;42.40;;;-147.20;100.00;58430.41;5092995;28;20056;-19
2022/05/28 03:01:32;;;;;;;1.23;0.60;;;23.20;42.40;;;-147.20;100.00;58430.41;5093551;28;20055;-19
2022/05/28 03:03:58;;;;;;;0.63;0.60;;;23.20;42.40;;;-147.20;100.00;58430.41;5092820;28;20423;-19
2022/05/28 03:06:24;;;;;;;0.63;0.60;;;23.20;42.40;;;-147.20;100.00;58430.41;5093435;28;20040;-19
2022/05/28 03:08:51;;;;;;;1.38;0.90;;;23.20;42.40;;;-147.20;100.00;58430.41;5092907;28;20044;-20
2022/05/28 03:11:17;;;;;;;0.40;0.40;;;23.20;42.40;;;-147.20;100.00;58430.41;5093595;28;20482;-19
2022/05/28 03:13:43;;;;;;;1.15;0.73;;;23.20;42.40;;;-147.20;100.00;58430.41;5093045;28;20131;-19
2022/05/28 03:16:09;;;;;;;0.60;0.60;;;23.20;42.40;;;-147.20;100.00;58430.41;5093041;28;20044;-19
2022/05/28 03:18:35;;;;;;;0.60;0.50;;;23.20;42.40;;;-147.20;100.00;58430.41;5092923;28;20075;-19
2022/05/28 03:21:01;;;;;;;0.73;0.70;;;23.20;42.40;;;-147.20;100.00;58430.41;5092780;28;20051;-19
2022/05/28 03:23:27;;;;;;;0.57;0.50;;;23.20;42.40;;;-147.20;100.00;58430.41;5093187;28;20494;-19
2022/05/28 03:25:52;;;;;;;1.33;0.68;;;23.20;42.40;;;-147.20;100.00;58430.41;5092898;28;20105;-19
2022/05/28 03:28:18;;;;;;;1.65;1.00;;;23.20;42.40;;;-147.20;100.00;58430.41;5092798;28;20135;-19
2022/05/28 03:30:44;;;;;;;0.60;0.50;;;23.20;42.40;;;-147.20;100.00;58430.41;5092740;28;20135;-20
2022/05/28 03:33:10;;;;;;;0.88;0.73;;;23.20;42.40;;;-147.20;100.00;58430.41;5092802;28;20403;-19
2022/05/28 03:35:37;;;;;;;0.85;0.63;;;23.20;42.40;;;-147.20;100.00;58430.41;5092367;28;20415;-20
2022/05/28 03:38:07;;;;;;;0.68;0.55;;;23.20;42.40;;;-147.20;100.00;58430.41;5092637;28;20084;-19
2022/05/28 03:40:34;;;;;;;0.80;0.57;;;23.20;42.40;;;-147.20;100.00;58430.41;5092708;28;20139;-19
2022/05/28 03:43:00;;;;;;;0.70;0.57;;;23.20;42.40;;;-147.20;100.00;58430.41;5092646;28;20044;-20
2022/05/28 03:45:27;;;;;;;0.68;0.68;;;23.20;42.40;;;-147.20;100.00;58430.41;5092825;28;20060;-19
2022/05/28 03:47:54;;;;;;;1.10;0.70;;;23.20;42.40;;;-147.20;100.00;58430.41;5092837;28;20066;-19
2022/05/28 03:50:20;;;;;;;0.60;0.60;;;23.20;42.40;;;-147.20;100.00;58430.41;5092543;28;20059;-20
2022/05/28 03:52:46;;;;;;;0.95;0.70;;;23.20;42.40;;;-147.20;100.00;58430.41;5092527;28;20052;-20
2022/05/28 03:55:13;;;;;;;0.88;0.60;;;23.20;42.40;;;-147.20;100.00;58430.41;5092443;28;20060;-19
2022/05/28 03:57:38;;;;;;;0.88;0.60;;;23.20;42.30;;;-147.20;100.00;58430.41;5092663;28;20473;-19
2022/05/28 04:00:05;;;;;;;0.50;0.50;;;23.20;42.30;;;-147.20;100.00;58430.41;5092657;28;20055;-19
2022/05/28 04:02:31;;;;;;;0.82;0.55;;;23.30;42.30;;;-147.20;100.00;58430.41;5092327;28;20083;-20
2022/05/28 04:04:57;;;;;;;0.60;0.50;;;23.30;42.10;;;-147.20;100.00;58430.41;5092317;28;20564;-20
2022/05/28 04:07:22;;;;;;;0.80;0.70;;;23.40;42.10;;;-147.20;100.00;58430.41;5092635;28;20059;-19
2022/05/28 04:09:48;;;;;;;0.70;0.50;;;23.40;42.10;;;-147.20;100.00;58430.41;5072113;28;20060;-19
2022/05/28 04:12:14;;;;;;;0.63;0.50;;;23.50;42.10;;;-147.20;100.00;58430.41;5092118;28;20040;-19
2022/05/28 04:14:40;;;;;;;0.75;0.75;;;23.50;42.00;;;-147.20;100.00;58430.41;5092592;28;20048;-19
2022/05/28 04:17:06;;;;;;;0.65;0.45;;;23.50;41.90;;;-147.20;100.00;58430.41;5092182;28;20400;-19
2022/05/28 04:19:32;;;;;;;0.65;0.55;;;23.60;41.90;;;-147.20;100.00;58430.41;5092095;28;20142;-20
2022/05/28 04:21:58;;;;;;;1.20;0.60;;;23.60;41.80;;;-147.20;100.00;58430.41;5092456;28;20052;-19
2022/05/28 04:24:25;;;;;;;0.93;0.73;;;23.60;41.80;;;-147.20;100.00;58430.41;5092657;28;20095;-20
2022/05/28 04:26:51;;;;;;;0.60;0.60;;;23.60;41.90;;;-147.20;100.00;58430.41;5092328;28;20052;-19
2022/05/28 04:29:17;;;;;;;1.30;1.00;;;23.50;41.90;;;-147.20;100.00;58430.41;5091756;28;20055;-20
2022/05/28 04:31:42;;;;;;;0.88;0.60;;;23.50;41.90;;;-147.20;100.00;58430.41;5091783;28;20081;-19
2022/05/28 04:34:09;;;;;;;0.90;0.60;;;23.50;42.00;;;-147.20;100.00;58430.41;5087828;28;20052;-20
2022/05/28 04:36:34;;;;;;;0.50;0.50;;;23.50;41.90;;;-147.20;100.00;58430.41;5091589;28;20488;-19
2022/05/28 04:39:00;;;;;;;0.77;0.57;;;23.50;41.90;;;-147.20;100.00;58430.41;5091850;28;20051;-19
2022/05/28 04:41:26;;;;;;;0.60;0.60;;;23.50;41.90;;;-147.20;100.00;58430.41;5091931;28;20484;-20
2022/05/28 04:43:52;;;;;;;0.93;0.68;;;23.60;41.90;;;-147.20;100.00;58430.41;5091827;28;20085;-19
2022/05/28 04:46:18;;;;;;;0.88;0.70;;;23.60;41.90;;;-147.20;100.00;58430.41;5091916;28;20044;-20
2022/05/28 04:48:44;;;;;;;1.02;0.70;;;23.60;41.80;;;-147.20;100.00;58430.41;5094659;28;20395;-20
2022/05/28 04:51:10;;;;;;;0.60;0.50;;;23.50;41.80;;;-147.20;100.00;58430.41;5095271;28;20403;-19
2022/05/28 04:53:35;;;;;;;0.93;0.70;;;23.60;41.80;;;-147.20;100.00;58430.41;5095274;28;20051;-20
2022/05/28 04:56:01;;;;;;;0.75;0.52;;;23.60;41.90;;;-147.20;100.00;58430.41;5095521;28;20391;-19
2022/05/28 04:58:27;;;;;;;1.08;0.60;;;23.60;41.80;;;-147.20;100.00;58430.41;5095017;28;20048;-19
2022/05/28 05:00:53;;;;;;;0.65;0.65;;;23.70;41.70;;;-147.20;100.00;58430.41;5095715;28;20044;-19
2022/05/28 05:03:19;;;;;;;0.57;0.57;;;23.70;41.60;;;-147.20;100.00;58430.41;5095110;28;20048;-20
2022/05/28 05:05:45;;;;;;;0.68;0.68;;;23.80;41.60;;;-147.20;100.00;58430.41;5095064;28;20052;-19
2022/05/28 05:08:11;;;;;;;0.95;0.60;;;23.80;41.50;;;-147.20;100.00;58430.41;5094979;28;20055;-20
2022/05/28 05:10:37;;;;;;;0.57;0.50;;;23.90;41.40;;;-147.20;100.00;58430.41;5094970;28;20056;-19
2022/05/28 05:13:03;;;;;;;1.33;0.70;;;23.90;41.30;;;-147.20;100.00;58430.41;5095284;28;20055;-20
2022/05/28 05:15:28;;;;;;;1.67;0.68;;;23.90;41.30;;;-147.20;100.00;58430.41;5094892;28;20047;-19
2022/05/28 05:17:55;;;;;;;0.60;0.60;;;24.00;41.20;;;-147.20;100.00;58430.41;5094609;28;20048;-20
2022/05/28 05:20:21;;;;;;;1.02;0.60;;;24.10;41.10;;;-147.20;100.00;58430.41;5095243;28;20048;-20
2022/05/28 05:22:46;;;;;;;1.63;0.70;;;24.10;41.00;;;-147.20;100.00;58430.41;5095011;28;20397;-19
2022/05/28 05:25:14;;;;;;;0.60;0.50;;;24.10;41.00;;;-147.20;100.00;58430.41;5094730;28;20492;-19
2022/05/28 05:27:41;;;;;;;0.90;0.70;;;24.10;41.10;;;-147.20;100.00;58430.41;5094548;28;20147;-20
2022/05/28 05:30:07;;;;;;;0.60;0.55;;;24.20;41.10;;;-147.20;100.00;58430.41;5094500;28;20047;-19
2022/05/28 05:32:33;;;;;;;1.77;0.60;;;24.20;40.90;;;-147.20;100.00;58430.41;5094589;28;20135;-19
2022/05/28 05:34:59;;;;;;;1.00;0.80;;;24.20;40.90;;;-147.20;100.00;58430.41;5094520;28;20040;-20
2022/05/28 05:37:25;;;;;;;0.50;0.50;;;24.30;40.80;;;-147.20;100.00;58430.41;5094372;28;20054;-20
2022/05/28 05:39:50;;;;;;;0.63;0.50;;;24.30;40.70;;;-147.20;100.00;58430.41;5094449;28;20048;-19
2022/05/28 05:42:16;;;;;;;1.00;0.70;;;24.40;40.80;;;-147.20;100.00;58430.41;5094431;28;20048;-20
2022/05/28 05:44:42;;;;;;;0.80;0.60;;;24.40;40.70;;;-147.20;100.00;58430.41;5094716;28;20052;-19
2022/05/28 05:47:08;;;;;;;0.50;0.50;;;24.40;40.60;;;-147.20;100.00;58430.41;5094367;28;20107;-20
2022/05/28 05:49:34;;;;;;;0.70;0.68;;;24.50;40.50;;;-147.20;100.00;58430.41;5076249;28;20052;-20
2022/05/28 05:52:00;;;;;;;0.68;0.50;;;24.50;40.50;;;-147.20;100.00;58430.41;5094592;28;20048;-20
2022/05/28 05:54:26;;;;;;;0.32;0.32;;;24.50;40.70;;;-147.20;100.00;58430.41;5094228;28;20048;-20
2022/05/28 05:56:53;;;;;;;0.95;0.60;;;24.40;40.60;;;-147.20;100.00;58430.41;5094136;28;20450;-20
2022/05/28 05:59:19;;;;;;;0.60;0.50;;;24.40;40.70;;;-147.20;100.00;58430.41;5094132;28;20082;-20
2022/05/28 06:01:45;;;;;;;0.85;0.50;;;24.30;40.70;;;-147.20;100.00;58430.41;5093908;28;20052;-19
2022/05/28 06:04:11;;;;;;;1.38;0.50;;;24.30;40.80;;;-147.20;100.00;58430.41;5093887;28;20047;-20
2022/05/28 06:06:36;;;;;;;1.00;0.55;;;24.30;40.90;;;-147.20;100.00;58430.41;5093549;28;20056;-20
2022/05/28 06:09:03;;;;;;;1.40;0.65;;;24.30;40.90;;;-147.20;100.00;58430.41;5093730;28;20047;-20
2022/05/28 06:11:28;;;;;;;0.60;0.60;;;24.30;40.90;;;-147.20;100.00;58430.41;5094063;28;20479;-20
2022/05/28 06:13:54;;;;;;;0.90;0.60;;;24.30;40.80;;;-147.20;100.00;58430.41;5093965;28;20043;-19
2022/05/28 06:16:20;;;;;;;0.52;0.50;;;24.40;40.80;;;-147.20;100.00;58430.41;5094275;28;20126;-20
2022/05/28 06:18:46;;;;;;;0.73;0.43;;;24.40;40.70;;;-147.20;100.00;58430.41;5093450;28;20048;-19
2022/05/28 06:21:12;;;;;;;0.93;0.60;;;24.40;40.80;;;-147.20;100.00;58430.41;5093796;28;20056;-20
2022/05/28 06:23:39;;;;;;;1.33;0.60;;;24.40;40.70;;;-147.20;100.00;58430.41;5093997;28;20039;-20
2022/05/28 06:26:05;;;;;;;0.50;0.45;;;24.40;40.70;;;-147.20;100.00;58430.41;5093749;28;20487;-20
2022/05/28 06:28:32;;;;;;;1.00;0.60;;;24.40;40.60;;;-147.20;100.00;58430.41;5093688;28;20136;-19
2022/05/28 06:31:03;;;;;;;0.60;0.55;;;24.40;40.60;;;-147.20;100.00;58430.41;5094051;28;20137;-20
2022/05/28 06:33:29;;;;;;;0.60;0.50;;;24.50;40.60;;;-147.20;100.00;58430.41;5094300;28;20054;-20
2022/05/28 06:35:59;;;;;;;1.08;0.70;;;24.50;40.40;;;-147.20;100.00;58430.41;5094135;28;20392;-20
2022/05/28 06:38:26;;;;;;;0.68;0.65;;;24.60;40.30;;;-147.20;100.00;58430.41;5075319;28;20192;-19
2022/05/28 06:40:53;;;;;;;0.70;0.60;;;24.70;40.20;;;-147.20;100.00;58430.41;5093807;28;20036;-20
2022/05/28 06:43:20;;;;;;;0.77;0.60;;;24.70;40.10;;;-147.20;100.00;58430.41;5093546;28;20044;-20
2022/05/28 06:45:46;;;;;;;0.77;0.50;;;24.80;40.10;;;-147.20;100.00;58430.41;5093502;28;20046;-20
2022/05/28 06:48:12;;;;;;;0.63;0.50;;;24.80;40.00;;;-147.20;100.00;58430.41;5093930;28;20391;-20
2022/05/28 06:53:24;;;;;;;1.05;0.50;;;24.90;39.90;;;-147.20;100.00;58430.41;5093723;28;20052;-20
2022/05/28 06:55:49;;;;;;;0.60;0.60;;;24.90;39.80;;;-147.20;100.00;58430.41;5093159;28;20052;-20
2022/05/28 06:58:15;;;;;;;0.70;0.70;;;24.90;39.80;;;-147.20;100.00;58430.41;5093579;28;20054;-19
2022/05/28 07:00:41;;;;;;;0.55;0.45;;;24.90;39.70;;;-147.20;100.00;58430.41;5093227;28;20552;-20
2022/05/28 07:03:18;;;;;;;1.02;0.50;;;25.00;39.70;;;-147.20;100.00;58430.41;5093269;28;20496;-20
2022/05/28 07:05:44;;;;;;;0.63;0.50;;;25.00;39.70;;;-147.20;100.00;58430.41;5093376;28;20048;-19
2022/05/28 07:08:10;;;;;;;0.60;0.50;;;25.00;39.60;;;-147.20;100.00;58430.41;5093380;28;20101;-20
2022/05/28 07:10:41;;;;;;;0.85;0.63;;;25.10;39.60;;;-147.20;100.00;58430.41;5092740;28;20400;-20
2022/05/28 07:13:07;;;;;;;0.55;0.55;;;25.10;39.60;;;-147.20;100.00;58430.41;5093352;28;20392;-20
2022/05/28 07:15:33;;;;;;;0.70;0.60;;;25.10;39.50;;;-147.20;100.00;58430.41;5093049;28;20052;-20
2022/05/28 07:17:59;;;;;;;0.73;0.65;;;25.10;39.50;;;-147.20;100.00;58430.41;5092848;28;20144;-19
2022/05/28 07:20:25;;;;;;;0.40;0.40;;;25.10;39.40;;;-147.20;100.00;58430.41;5093007;28;20056;-19
2022/05/28 07:22:51;;;;;;;0.50;0.50;;;25.20;39.50;;;-147.20;100.00;58430.41;5093401;28;20044;-20
2022/05/28 07:25:17;;;;;;;0.60;0.60;;;25.20;39.40;;;-147.20;100.00;58430.41;5092920;28;20139;-19
2022/05/28 07:27:42;;;;;;;0.50;0.43;;;25.20;39.40;;;-147.20;100.00;58430.41;5092961;28;20181;-20
2022/05/28 07:30:09;;;;;;;0.80;0.60;;;25.20;39.50;;;-147.20;100.00;58430.41;5092747;28;20052;-20
2022/05/28 07:32:35;;;;;;;0.50;0.50;;;25.10;39.40;;;-147.20;100.00;58430.41;5092701;28;20442;-20
2022/05/28 07:35:01;;;;;;;0.85;0.68;;;25.10;40.20;;;-147.20;100.00;58430.41;5092736;28;20044;-20
2022/05/28 07:37:30;;;;;;;0.90;0.63;;;25.00;39.70;;;-147.20;100.00;58430.41;5092636;28;20475;-20
2022/05/28 07:39:57;;;;;;;0.95;0.50;;;24.90;39.80;;;-147.20;100.00;58430.41;5092549;28;20059;-20
2022/05/28 07:42:22;;;;;;;1.27;0.60;;;24.80;40.00;;;-147.20;100.00;58430.41;5092750;28;20056;-19
2022/05/28 07:44:48;;;;;;;0.90;0.60;;;24.70;40.10;;;-147.20;100.00;58430.41;5092572;28;20449;-20
2022/05/28 07:47:14;;;;;;;0.40;0.40;;;24.70;40.20;;;-147.20;100.00;58430.41;5092834;28;20450;-20
2022/05/28 07:49:40;;;;;;;1.52;0.70;;;24.60;40.30;;;-147.20;100.00;58430.41;5092614;28;20475;-20
2022/05/28 07:52:06;;;;;;;0.50;0.50;;;24.70;40.20;;;-147.20;100.00;58430.41;5092840;28;20047;-19
2022/05/28 07:54:33;;;;;;;0.63;0.63;;;24.70;40.20;;;-147.20;100.00;58430.41;5092595;28;20102;-19
2022/05/28 07:57:00;;;;;;;0.60;0.50;;;24.70;40.20;;;-147.20;100.00;58430.41;5092377;28;20142;-19
2022/05/28 07:59:29;;;;;;;0.43;0.43;;;24.60;40.30;;;-147.20;100.00;58430.41;5092412;28;20503;-20
2022/05/28 08:01:56;;;;;;;0.75;0.55;;;24.60;40.40;;;-147.20;100.00;58430.41;5092337;28;20055;-20
2022/05/28 08:04:25;;;;;;;0.90;0.55;;;24.50;40.40;;;-147.20;100.00;58430.41;5092408;28;20051;-20
2022/05/28 08:06:51;;;;;;;0.70;0.60;;;24.50;40.40;;;-147.20;100.00;58430.41;5092349;28;20052;-20
2022/05/28 08:09:16;;;;;;;0.40;0.40;;;24.50;40.50;;;-147.20;100.00;58430.41;5092198;28;20044;-20
2022/05/28 08:11:42;;;;;;;0.93;0.60;;;24.50;40.40;;;-147.20;100.00;58430.41;5092525;28;20059;-19
2022/05/28 08:14:08;;;;;;;0.45;0.45;;;24.50;40.40;;;-147.20;100.00;58430.41;5092285;28;20082;-20
2022/05/28 08:16:34;;;;;;;0.50;0.50;;;24.50;40.40;;;-147.20;100.00;58430.41;5091924;28;20130;-20
2022/05/28 08:19:01;;;;;;;0.57;0.45;;;24.60;40.30;;;-147.20;100.00;58430.41;5091646;28;20070;-20
2022/05/28 08:24:11;;;;;;;1.00;0.73;;;24.70;40.00;;;-147.20;100.00;58430.41;5095106;28;20474;-20
2022/05/28 08:26:38;;;;;;;0.50;0.50;;;24.80;40.00;;;-147.20;100.00;58430.41;5095466;28;20133;-20
2022/05/28 08:29:05;;;;;;;0.55;0.50;;;24.90;39.90;;;-147.20;100.00;58430.41;5095450;28;20377;-19
2022/05/28 08:31:31;;;;;;;1.02;0.52;;;24.90;39.90;;;-147.20;100.00;58430.41;5095464;28;20044;-20
2022/05/28 08:33:57;;;;;;;0.70;0.50;;;24.90;39.90;;;-147.20;100.00;58430.41;5095465;28;20047;-20
2022/05/28 08:36:24;;;;;;;0.50;0.47;;;24.90;39.90;;;-147.20;100.00;58430.41;5095857;28;20492;-20
2022/05/28 08:38:50;;;;;;;0.47;0.47;;;24.80;40.00;;;-147.20;100.00;58430.41;5077585;28;20044;-20
2022/05/28 08:41:23;;;;;;;1.20;0.50;;;24.70;40.10;;;-147.20;100.00;58430.41;5095520;28;20048;-21
2022/05/28 08:44:14;;;;;;;0.70;0.50;;;24.60;40.30;;;-147.20;100.00;58430.41;5077321;28;20395;-20
2022/05/28 08:46:43;;;;;;;0.60;0.60;;;24.50;40.30;;;-147.20;100.00;58430.41;5095101;28;20058;-20
2022/05/28 08:49:12;;;;;;;0.55;0.45;;;24.50;40.40;;;-147.20;100.00;58430.41;5095571;28;20492;-19
2022/05/28 08:51:48;;;;;;;0.60;0.60;;;24.60;40.40;;;-147.20;100.00;58430.41;5076509;28;20083;-20
2022/05/28 08:54:40;;;;;;;0.63;0.50;;;24.60;40.30;;;-147.20;100.00;58430.41;5077715;28;20040;-20
2022/05/28 08:57:19;;;;;;;1.17;0.60;;;24.60;40.30;;;-147.20;100.00;58430.41;5094975;28;20059;-19
2022/05/28 08:59:56;;;;;;;0.60;0.60;;;24.70;40.30;;;-147.20;100.00;58430.41;5095250;28;20036;-20
2022/05/28 09:02:46;;;;;;;0.93;0.60;;;24.60;40.30;;;-147.20;100.00;58430.41;5095005;28;20052;-19
2022/05/28 09:05:35;;;;;;;0.70;0.70;;;24.50;40.40;;;-147.20;100.00;58430.41;5076939;28;20102;-20
2022/05/28 09:08:04;;;;;;;0.60;0.50;;;24.40;40.50;;;-147.20;100.00;58430.41;5076807;28;20044;-20
2022/05/28 09:10:41;;;;;;;1.00;0.50;;;24.40;40.60;;;-147.20;100.00;58430.41;5076846;28;20044;-20
2022/05/28 09:13:21;;;;;;;0.77;0.55;;;24.40;41.20;;;-147.20;100.00;58430.41;5077073;28;20097;-20
2022/05/28 09:15:47;;;;;;;0.60;0.50;;;24.40;40.70;;;-147.20;100.00;58430.41;5076943;28;20083;-20
2022/05/28 09:18:13;;;;;;;1.05;0.68;;;24.40;40.70;;;-147.20;100.00;58430.41;5095304;28;20082;-20
2022/05/28 09:20:43;;;;;;;0.73;0.60;;;24.40;40.70;;;-147.20;100.00;58430.41;5075505;28;20147;-21
2022/05/28 09:23:10;;;;;;;0.60;0.60;;;24.40;40.70;;;-147.20;100.00;58430.41;5094706;28;20040;-20
2022/05/28 09:25:43;;;;;;;1.08;0.70;;;24.30;40.60;;;-147.20;100.00;58430.41;5094939;28;20066;-19
2022/05/28 09:28:18;;;;;;;1.58;0.40;;;24.30;40.60;;;-147.20;100.00;58430.41;5094653;28;20043;-19
2022/05/28 09:31:18;;;;;;;0.95;0.55;;;24.40;40.60;;;-147.20;100.00;58430.41;5094985;28;20074;-20
2022/05/28 09:34:25;;;;;;;0.40;0.40;;;24.40;40.60;;;-147.20;100.00;58430.41;5076375;28;20082;-19
2022/05/28 09:37:58;;;;;;;0.63;0.43;;;24.40;40.50;;;-147.20;100.00;58430.41;5094523;28;20048;-20
2022/05/28 09:40:42;;;;;;;1.65;0.60;;;24.40;40.50;;;-147.20;100.00;58430.41;5009794;28;20043;-19
2022/05/28 09:43:46;;;;;;;0.70;0.52;;;24.40;40.60;;;-147.20;100.00;58430.41;5074850;28;20057;-20
2022/05/28 09:46:32;;;;;;;0.50;0.50;;;24.30;41.30;;;-147.20;100.00;58430.41;5094405;28;20453;-20
2022/05/28 09:49:15;;;;;;;0.80;0.77;;;24.20;40.80;;;-147.20;100.00;58430.41;5075088;28;20469;-20
2022/05/28 09:52:08;;;;;;;1.17;0.80;;;24.20;40.90;;;-147.20;100.00;58430.41;5094653;28;20051;-20
2022/05/28 09:54:36;;;;;;;0.68;0.45;;;24.20;40.90;;;-147.20;100.00;58430.41;5094284;28;20060;-20
2022/05/28 09:57:27;;;;;;;0.63;0.57;;;24.20;40.90;;;-147.20;100.00;58430.41;5093617;28;20100;-19
2022/05/28 10:00:00;;;;;;;1.08;0.70;;;24.20;40.90;;;-147.20;100.00;58430.41;5094321;28;20127;-20
2022/05/28 10:04:28;;;;;;;0.63;0.40;;;24.30;40.80;;;-147.20;100.00;58430.41;5076521;28;20048;-19
2022/05/28 10:05:33;;;;;;;0.65;0.47;;;24.30;40.70;;;-147.20;100.00;58430.41;5079156;28;20090;-19
2022/05/28 10:08:10;;;;;;;0.75;0.70;;;24.30;40.70;;;-147.20;100.00;58430.41;5074281;28;20048;-19
2022/05/28 10:10:38;;;;;;;1.10;0.60;;;24.40;40.70;;;-147.20;100.00;58430.41;5094017;28;20138;-20
2022/05/28 10:13:19;;;;;;;0.40;0.40;;;24.30;40.60;;;-147.20;100.00;58430.41;5093937;28;20134;-20
2022/05/28 10:15:51;;;;;;;0.50;0.50;;;24.30;40.70;;;-147.20;100.00;58430.41;5094004;28;20055;-20
2022/05/28 10:18:22;;;;;;;0.68;0.57;;;24.40;40.70;;;-147.20;100.00;58430.41;5073158;28;20056;-19
2022/05/28 10:21:10;;;;;;;0.52;0.52;;;24.40;40.60;;;-147.20;100.00;58430.41;5075006;28;20040;-20